Terminal Aerodrome Forecast
Issued by NWS

Home | Current Version | Previous Version | Text Only | Print | Product List | Glossary On
Versions: 1 2 3 4 5 6 7 8 9 10 11 12
470
FTUS45 KABQ 290536
TAFFMN
TAF
KFMN 290536Z 2906/3006 33005KT P6SM FEW110
     FM290800 07007KT P6SM SKC
     FM291900 29007KT P6SM FEW110
     FM300400 09008KT P6SM SCT110=

USA.gov is the U.S. government's official web portal to all federal, state and local government web resources and services.